Time;durP1;ratioP1;P1;durP2;ratioP2;P2;SDS_P1;SDS_P2;PMS_P1;PMS_P2;Temp;Humidity;BMP_temperature;BMP_pressure;BME280_temperature;BME280_humidity;BME280_pressure;Samples;Min_cycle;Max_cycle;Signal;HPM_P1;HPM_P2
2022/08/26 04:17:03;;;;;;;5.35;3.83;;;;;;;17.18;89.63;99864.22;5183702;23;19961;-65
2022/08/26 04:19:30;;;;;;;9.65;4.75;;;;;;;17.12;89.63;99865.13;4953384;28;20041;-66
2022/08/26 04:21:55;;;;;;;5.25;3.80;;;;;;;17.04;90.25;99863.56;4953581;28;20035;-66
2022/08/26 04:24:24;;;;;;;6.05;3.90;;;;;;;17.14;89.89;99863.81;4953581;28;20032;-67
2022/08/26 04:26:50;;;;;;;6.50;4.78;;;;;;;17.04;90.38;99860.84;4940102;28;20043;-66
2022/08/26 04:29:24;;;;;;;9.80;4.45;;;;;;;16.99;90.65;99864.22;4933966;29;20114;-67
2022/08/26 04:31:53;;;;;;;6.35;4.45;;;;;;;16.93;91.33;99862.41;4961194;23;20449;-65
2022/08/26 04:34:19;;;;;;;6.43;4.78;;;;;;;16.83;92.19;99858.63;4953135;28;20035;-64
2022/08/26 04:36:45;;;;;;;5.60;4.00;;;;;;;16.89;91.53;99863.94;4953328;28;20039;-65
2022/08/26 04:39:15;;;;;;;5.00;3.60;;;;;;;16.88;91.51;99864.94;4953229;28;20035;-66
2022/08/26 04:41:41;;;;;;;5.88;4.18;;;;;;;16.93;91.39;99865.09;4940461;28;20441;-65
2022/08/26 04:44:07;;;;;;;8.38;4.13;;;;;;;16.93;91.60;99859.72;4934066;29;20042;-66
2022/08/26 04:46:33;;;;;;;7.63;4.15;;;;;;;16.98;91.50;99859.88;4934134;29;20036;-65
2022/08/26 04:48:58;;;;;;;4.55;3.70;;;;;;;16.91;92.23;99852.94;4933864;29;20449;-65
2022/08/26 04:51:27;;;;;;;7.70;4.57;;;;;;;16.98;91.83;99859.88;4934019;29;20078;-65
2022/08/26 04:53:57;;;;;;;7.15;4.30;;;;;;;17.04;91.50;99856.28;4933973;29;20504;-66
2022/08/26 04:56:25;;;;;;;9.68;4.80;;;;;;;17.08;90.78;99867.41;4934123;29;20369;-65
2022/08/26 04:58:50;;;;;;;6.57;4.43;;;;;;;17.12;90.33;99867.81;4934274;29;20032;-66
2022/08/26 05:01:16;;;;;;;6.57;4.05;;;;;;;17.08;90.64;99872.78;4933805;29;20046;-65
2022/08/26 05:03:41;;;;;;;5.57;4.00;;;;;;;17.07;90.40;99871.16;4933848;29;20380;-65
2022/08/26 05:06:07;;;;;;;8.43;4.43;;;;;;;17.03;90.88;99870.81;4916712;29;20074;-65
2022/08/26 05:08:32;;;;;;;6.25;4.32;;;;;;;17.05;90.57;99871.38;4933837;29;20040;-65
2022/08/26 05:10:57;;;;;;;7.28;3.67;;;;;;;16.95;90.80;99867.56;4933666;29;20068;-67
2022/08/26 05:13:26;;;;;;;7.22;4.50;;;;;;;17.01;91.08;99877.44;4933699;29;20098;-66
2022/08/26 05:15:53;;;;;;;6.45;3.70;;;;;;;16.96;91.41;99877.31;4933699;29;20094;-66
2022/08/26 05:18:21;;;;;;;10.90;4.65;;;;;;;16.98;91.56;99888.66;4933752;29;20040;-67
2022/08/26 05:20:51;;;;;;;6.18;4.20;;;;;;;16.96;91.72;99878.13;4933584;29;20048;-66
2022/08/26 05:23:17;;;;;;;6.85;3.75;;;;;;;16.94;92.90;99885.56;4933820;29;20036;-65
2022/08/26 05:25:45;;;;;;;8.43;4.68;;;;;;;16.99;92.61;99888.44;4933712;29;20114;-66
2022/08/26 05:28:13;;;;;;;8.60;5.38;;;;;;;17.02;92.24;99897.94;4933756;29;20055;-65
2022/08/26 05:30:39;;;;;;;7.90;4.60;;;;;;;17.07;92.00;99896.19;4936299;29;20388;-65
2022/08/26 05:33:07;;;;;;;6.93;4.20;;;;;;;17.10;91.93;99897.63;4952731;29;20058;-65
2022/08/26 05:35:33;;;;;;;;;;;;;;;17.15;91.84;99905.00;4953131;28;20031;-66
2022/08/26 05:38:02;;;;;;;6.75;4.57;;;;;;;17.23;91.68;99905.56;4952792;29;20265;-66
2022/08/26 05:40:31;;;;;;;7.72;4.63;;;;;;;17.24;92.15;99904.50;4954028;28;20059;-67
2022/08/26 05:42:59;;;;;;;6.32;4.75;;;;;;;17.32;91.42;99908.75;4956311;28;20115;-66
2022/08/26 05:45:24;;;;;;;8.40;4.57;;;;;;;17.38;91.58;99910.56;4956045;28;20653;-66
2022/08/26 05:47:50;;;;;;;9.00;5.18;;;;;;;17.44;91.20;99909.66;4956093;28;20074;-67
2022/08/26 05:50:20;;;;;;;7.90;4.57;;;;;;;17.51;90.95;99907.69;4955604;28;20082;-59
2022/08/26 05:52:49;;;;;;;7.90;4.85;;;;;;;17.59;90.62;99918.16;4954868;29;20555;-51
2022/08/26 05:55:18;;;;;;;10.40;4.95;;;;;;;17.68;90.36;99920.56;4962423;28;20034;-50
2022/08/26 05:57:44;;;;;;;10.90;5.30;;;;;;;17.75;89.81;99911.34;4958595;28;20134;-51
2022/08/26 06:00:11;;;;;;;6.93;4.68;;;;;;;17.84;89.51;99920.75;4955636;28;20035;-50
2022/08/26 06:02:39;;;;;;;6.28;4.63;;;;;;;17.90;89.23;99929.78;4955966;28;20027;-50
2022/08/26 06:05:05;;;;;;;6.80;4.45;;;;;;;17.97;88.63;99918.94;4955806;28;20177;-51
2022/08/26 06:08:17;;;;;;;8.85;5.00;;;;;;;18.03;88.31;99923.41;4955603;28;20047;-52
2022/08/26 06:10:17;;;;;;;6.95;4.65;;;;;;;18.11;88.89;99921.19;4954856;28;20055;-52
2022/08/26 06:12:42;;;;;;;6.53;4.32;;;;;;;18.20;88.93;99926.28;4955648;28;20038;-51
2022/08/26 06:15:08;;;;;;;8.68;5.47;;;;;;;18.27;87.64;99927.00;4955507;28;20401;-49
2022/08/26 06:17:34;;;;;;;7.70;4.57;;;;;;;18.37;87.23;99927.22;4955505;28;20400;-50
2022/08/26 06:20:02;;;;;;;6.47;4.45;;;;;;;18.44;86.81;99923.38;4956283;28;20158;-53
2022/08/26 06:27:56;;;;;;;6.80;4.47;;;;;;;18.80;85.46;99923.44;4958587;29;20044;-50
2022/08/26 06:30:29;;;;;;;6.95;5.13;;;;;;;18.89;84.23;99920.13;4962964;28;20043;-53
2022/08/26 06:32:57;;;;;;;7.75;4.78;;;;;;;18.96;84.17;99917.31;4967224;28;20046;-51
2022/08/26 06:35:35;;;;;;;8.68;5.05;;;;;;;19.06;83.81;99928.34;4963989;28;20047;-50
2022/08/26 06:38:01;;;;;;;7.13;4.80;;;;;;;19.10;83.84;99921.41;4962637;29;20038;-51
2022/08/26 06:40:28;;;;;;;8.15;4.82;;;;;;;19.20;83.07;99931.63;4962934;28;20044;-51
2022/08/26 06:42:53;;;;;;;6.53;4.63;;;;;;;19.30;82.28;99923.75;4955140;28;20038;-50
2022/08/26 06:45:20;;;;;;;7.55;4.93;;;;;;;19.44;82.79;99935.09;4953838;28;20039;-51
2022/08/26 06:47:45;;;;;;;6.45;4.70;;;;;;;19.62;80.82;99929.53;4953619;28;20045;-49
2022/08/26 06:50:11;;;;;;;8.25;5.15;;;;;;;19.73;79.56;99927.88;4954570;28;20039;-48
2022/08/26 06:52:36;;;;;;;9.10;5.15;;;;;;;19.87;79.89;99934.63;4955321;28;20374;-50
2022/08/26 06:55:02;;;;;;;7.90;4.70;;;;;;;19.95;78.34;99936.94;4954965;29;20035;-51
2022/08/26 06:57:31;;;;;;;6.80;4.60;;;;;;;20.04;78.43;99934.66;4954821;28;20038;-49
2022/08/26 06:59:57;;;;;;;9.32;5.18;;;;;;;20.20;77.41;99928.47;4937835;29;20404;-50
2022/08/26 07:02:22;;;;;;;7.47;4.28;;;;;;;20.47;76.07;99927.84;4954569;28;20102;-48
2022/08/26 07:04:47;;;;;;;9.55;4.93;;;;;;;20.75;74.95;99922.38;4954686;29;20050;-52
2022/08/26 07:07:13;;;;;;;6.57;4.60;;;;;;;20.95;74.12;99924.53;4953346;29;20081;-51
2022/08/26 07:09:39;;;;;;;8.02;5.20;;;;;;;21.13;72.65;99931.56;4954528;28;20047;-49
2022/08/26 07:12:05;;;;;;;10.35;4.82;;;;;;;21.31;71.44;99923.16;4954539;28;20126;-51
2022/08/26 07:14:30;;;;;;;7.47;5.32;;;;;;;21.43;70.87;99935.75;4953121;28;20512;-49
2022/08/26 07:16:56;;;;;;;10.15;4.75;;;;;;;21.58;70.34;99930.53;4954433;28;20043;-51
2022/08/26 07:19:23;;;;;;;8.52;5.05;;;;;;;21.71;70.25;99948.28;4954102;28;20059;-49
2022/08/26 07:21:49;;;;;;;7.93;4.55;;;;;;;21.84;69.41;99940.59;4954225;28;20051;-53
2022/08/26 07:24:14;;;;;;;6.75;4.47;;;;;;;21.96;69.11;99940.44;4954318;28;20031;-54
2022/08/26 07:26:39;;;;;;;6.78;4.82;;;;;;;22.04;68.21;99953.56;4954288;29;20493;-51
2022/08/26 07:29:05;;;;;;;10.45;4.80;;;;;;;22.10;68.27;99954.44;4942273;28;20062;-52
2022/08/26 07:31:34;;;;;;;8.32;4.30;;;;;;;22.16;67.92;99951.53;4934733;29;20039;-54
2022/08/26 07:34:00;;;;;;;10.15;6.10;;;;;;;22.17;68.43;99944.22;4935217;29;20036;-51
2022/08/26 07:36:27;;;;;;;6.43;4.45;;;;;;;22.27;67.46;99947.03;4935491;29;20039;-54
2022/08/26 07:38:53;;;;;;;8.27;4.57;;;;;;;22.44;66.96;99947.72;4935381;29;20544;-53
2022/08/26 07:41:22;;;;;;;6.05;4.43;;;;;;;22.58;67.07;99948.09;4934822;29;20039;-52
2022/08/26 07:43:47;;;;;;;6.80;4.00;;;;;;;22.81;66.56;99946.91;4934656;29;20474;-56
2022/08/26 07:46:17;;;;;;;8.93;3.70;;;;;;;23.02;64.29;99937.88;4934742;29;20046;-55
2022/08/26 07:48:43;;;;;;;5.25;4.00;;;;;;;23.22;63.16;99939.88;4933636;29;20675;-53
2022/08/26 07:51:09;;;;;;;10.32;5.00;;;;;;;23.44;62.70;99938.88;4935057;29;20556;-54
2022/08/26 07:53:38;;;;;;;5.63;3.55;;;;;;;23.48;62.62;99950.88;4936385;29;20136;-51
2022/08/26 07:56:04;;;;;;;6.88;4.05;;;;;;;23.59;61.41;99947.09;4934638;29;20032;-52
2022/08/26 07:58:29;;;;;;;6.15;3.65;;;;;;;23.71;60.45;99942.28;4934589;29;20090;-52
2022/08/26 08:00:55;;;;;;;4.90;3.58;;;;;;;23.88;59.42;99949.41;4934165;29;20160;-53
2022/08/26 08:03:21;;;;;;;6.38;3.60;;;;;;;24.06;58.34;99944.28;4934259;29;20146;-57
2022/08/26 08:05:47;;;;;;;6.72;3.38;;;;;;;24.00;59.35;99948.06;4934582;29;20036;-55
2022/08/26 08:08:13;;;;;;;5.32;3.40;;;;;;;24.05;59.63;99944.53;4933173;29;20401;-53
2022/08/26 08:10:38;;;;;;;7.38;3.05;;;;;;;24.06;58.97;99944.28;4932746;29;20094;-52
2022/08/26 08:13:08;;;;;;;8.40;3.80;;;;;;;24.17;59.03;99936.94;4934406;29;20055;-51
2022/08/26 08:15:34;;;;;;;3.97;3.45;;;;;;;24.29;59.88;99940.22;4934238;29;20541;-52
2022/08/26 08:18:00;;;;;;;5.88;4.05;;;;;;;24.30;59.94;99941.03;4935870;29;20023;-52
2022/08/26 08:20:27;;;;;;;5.93;3.20;;;;;;;24.34;60.02;99942.16;4934011;29;20110;-52
2022/08/26 08:22:53;;;;;;;5.00;3.13;;;;;;;24.46;59.33;99950.06;4933104;29;20095;-50
2022/08/26 08:25:19;;;;;;;5.85;3.35;;;;;;;24.44;60.85;99938.63;4934030;29;20697;-49
2022/08/26 08:27:45;;;;;;;5.90;3.83;;;;;;;24.54;58.96;99939.44;4934015;29;20035;-51
2022/08/26 08:30:12;;;;;;;5.40;3.72;;;;;;;24.84;58.22;99946.78;4933707;29;20178;-54
2022/08/26 08:32:38;;;;;;;5.70;3.42;;;;;;;24.86;57.51;99950.03;4934202;29;20071;-50
2022/08/26 08:35:06;;;;;;;4.35;3.17;;;;;;;24.87;58.79;99942.69;4934080;29;20067;-49
2022/08/26 08:37:32;;;;;;;5.97;3.85;;;;;;;24.85;57.77;99936.69;4933964;29;20086;-53
2022/08/26 08:39:58;;;;;;;4.45;3.53;;;;;;;24.83;58.03;99945.13;4933658;29;20071;-49
2022/08/26 08:42:26;;;;;;;7.38;3.33;;;;;;;24.86;58.39;99949.22;4933882;29;20040;-49
2022/08/26 08:44:56;;;;;;;4.80;3.60;;;;;;;25.05;57.87;99941.31;4933949;29;20035;-52
2022/08/26 08:47:36;;;;;;;6.00;4.60;;;;;;;25.22;57.36;99936.34;4933974;29;20489;-52
2022/08/26 08:50:27;;;;;;;4.43;3.30;;;;;;;25.51;55.94;99931.09;4933754;29;20083;-49
2022/08/26 08:53:27;;;;;;;8.85;4.05;;;;;;;25.52;57.13;99934.63;4927906;29;20056;-53
2022/08/26 08:56:02;;;;;;;6.35;3.65;;;;;;;25.67;56.04;99940.00;4925940;29;20131;-65
2022/08/26 08:58:42;;;;;;;5.43;3.47;;;;;;;25.87;55.19;99939.91;4934054;29;20063;-64
2022/08/26 09:01:16;;;;;;;5.07;3.30;;;;;;;25.94;53.68;99936.88;4933627;29;20043;-64
2022/08/26 09:04:23;;;;;;;4.50;3.72;;;;;;;26.24;54.10;99930.41;4934129;29;20047;-65
2022/08/26 09:06:53;;;;;;;4.03;3.22;;;;;;;26.31;53.00;99922.69;4926698;29;20460;-65
2022/08/26 09:09:29;;;;;;;5.75;3.20;;;;;;;26.39;53.39;99929.47;4933451;29;20036;-65
2022/08/26 09:11:57;;;;;;;5.28;3.60;;;;;;;26.54;53.10;99923.94;4934051;29;20405;-65
2022/08/26 09:14:23;;;;;;;5.15;3.67;;;;;;;26.49;51.86;99930.22;4933830;29;20039;-65
2022/08/26 09:17:07;;;;;;;4.18;3.40;;;;;;;26.45;52.81;99934.63;4937125;29;20116;-65
2022/08/26 09:19:43;;;;;;;4.35;3.83;;;;;;;26.49;52.74;99927.50;4937238;29;20090;-65
2022/08/26 09:22:08;;;;;;;4.82;3.83;;;;;;;26.65;52.65;99919.97;4937490;29;20067;-66
2022/08/26 09:24:38;;;;;;;5.95;3.72;;;;;;;26.78;52.38;99919.31;4937466;29;20110;-66
2022/08/26 09:27:03;;;;;;;7.05;3.75;;;;;;;26.92;51.44;99916.69;4937408;29;20104;-65
2022/08/26 09:29:39;;;;;;;5.88;3.55;;;;;;;27.04;51.24;99916.31;4937106;29;20039;-66
2022/08/26 09:32:23;;;;;;;5.50;3.70;;;;;;;27.28;50.12;99908.16;4937097;29;20095;-66
2022/08/26 09:34:59;;;;;;;4.40;3.42;;;;;;;27.61;49.76;99921.94;4937206;29;20040;-66
2022/08/26 09:37:39;;;;;;;5.72;3.88;;;;;;;27.78;49.60;99916.84;4937227;29;20040;-67
2022/08/26 09:40:18;;;;;;;5.03;3.67;;;;;;;28.36;49.06;99916.50;4937196;29;20363;-66
2022/08/26 09:42:44;;;;;;;5.60;3.60;;;;;;;28.06;47.56;99902.16;4937505;29;20090;-66
2022/08/26 09:45:11;;;;;;;4.25;3.40;;;;;;;28.08;47.74;99904.59;4937020;29;20115;-66
2022/08/26 09:47:46;;;;;;;6.97;3.90;;;;;;;27.99;46.87;99900.94;4937047;29;20240;-66
2022/08/26 09:50:32;;;;;;;4.38;3.17;;;;;;;28.28;46.93;99900.72;4936739;29;20051;-65
2022/08/26 09:53:10;;;;;;;8.95;3.67;;;;;;;28.52;45.57;99895.97;4936683;29;20059;-67
2022/08/26 09:55:38;;;;;;;5.45;3.97;;;;;;;28.81;45.47;99881.19;4936696;29;20137;-66
2022/08/26 09:58:04;;;;;;;6.07;3.30;;;;;;;28.91;44.09;99879.13;4936680;29;20058;-66
2022/08/26 10:00:36;;;;;;;4.28;3.30;;;;;;;29.64;43.35;99882.03;4936325;29;20485;-66
2022/08/26 10:03:05;;;;;;;3.60;2.92;;;;;;;29.51;42.89;99874.59;4936592;29;20031;-66
2022/08/26 10:05:34;;;;;;;4.32;3.30;;;;;;;29.79;42.15;99870.69;4936689;29;20067;-66
2022/08/26 10:08:21;;;;;;;3.88;3.40;;;;;;;30.39;41.31;99866.81;4936767;29;20040;-66
2022/08/26 10:10:48;;;;;;;4.72;3.63;;;;;;;31.33;40.60;99855.44;4936462;29;20481;-66
2022/08/26 10:13:21;;;;;;;;;;;;;;;31.60;39.18;99857.06;4937002;29;20047;-65
2022/08/26 10:16:13;;;;;;;3.95;2.70;;;;;;;31.66;39.35;99848.66;4935373;29;19922;-66
2022/08/26 10:18:46;;;;;;;5.05;3.42;;;;;;;32.13;37.78;99855.13;4936384;29;20044;-66
2022/08/26 10:21:21;;;;;;;5.45;3.35;;;;;;;32.24;37.65;99844.59;4936133;29;20036;-65
2022/08/26 10:23:51;;;;;;;3.58;3.03;;;;;;;32.75;37.26;99837.34;4936573;29;20028;-65
2022/08/26 10:26:24;;;;;;;3.92;3.15;;;;;;;32.93;35.00;99827.88;4934588;29;20043;-66
2022/08/26 10:29:05;;;;;;;4.15;3.17;;;;;;;33.42;34.80;99829.03;4936177;29;20040;-61
2022/08/26 10:31:43;;;;;;;5.97;3.13;;;;;;;33.23;35.01;99831.41;4967145;23;20043;-71
2022/08/26 10:34:10;;;;;;;3.97;3.10;;;;;;;33.09;35.32;99828.09;4955276;28;20046;-70
2022/08/26 10:36:48;;;;;;;;;;;;;;;34.13;33.56;99827.34;4955754;28;20059;-70
2022/08/26 10:39:29;;;;;;;3.50;2.75;;;;;;;33.87;34.08;99824.78;4955035;28;19969;-70
2022/08/26 10:42:02;;;;;;;5.13;2.70;;;;;;;34.45;34.08;99817.41;4955113;28;20039;-70
2022/08/26 10:44:32;;;;;;;4.72;2.75;;;;;;;35.12;32.39;99818.03;4955121;29;20027;-70
2022/08/26 10:47:11;;;;;;;5.32;2.83;;;;;;;34.44;32.31;99826.88;4955178;29;20039;-70
2022/08/26 10:49:38;;;;;;;3.17;2.55;;;;;;;35.13;31.30;99822.41;4954753;29;20039;-69
2022/08/26 10:52:31;;;;;;;3.17;2.88;;;;;;;35.55;31.74;99811.88;4955002;28;20043;-70
2022/08/26 10:55:01;;;;;;;3.15;2.80;;;;;;;35.50;31.59;99817.63;4954955;29;20396;-70
2022/08/26 10:57:56;;;;;;;3.88;2.88;;;;;;;35.34;31.04;99820.28;4954984;29;20432;-70
2022/08/26 11:03:36;;;;;;;3.35;2.42;;;;;;;35.68;31.63;99807.88;4954922;29;20051;-57
2022/08/26 11:06:20;;;;;;;3.30;2.60;;;;;;;36.50;29.05;99801.03;4954857;29;20156;-63
2022/08/26 11:08:49;;;;;;;3.75;2.88;;;;;;;36.90;29.42;99793.31;4954600;29;20039;-62
2022/08/26 11:11:39;;;;;;;3.38;2.88;;;;;;;36.94;28.83;99794.22;4954453;28;20039;-62
2022/08/26 11:14:08;;;;;;;3.10;2.65;;;;;;;35.97;30.26;99795.66;4954726;29;20042;-61
2022/08/26 11:16:45;;;;;;;2.60;2.40;;;;;;;36.80;29.02;99793.84;4954545;29;20448;-61
2022/08/26 11:19:38;;;;;;;2.83;2.53;;;;;;;37.18;28.46;99784.84;4954224;29;20366;-61
2022/08/26 11:22:32;;;;;;;2.25;2.05;;;;;;;37.12;27.60;99777.97;4954310;28;20042;-62
2022/08/26 11:24:57;;;;;;;2.75;2.30;;;;;;;36.86;28.10;99777.72;4953977;29;20063;-62
2022/08/26 11:27:23;;;;;;;4.97;2.67;;;;;;;37.13;27.93;99778.78;4954439;28;20118;-61
2022/08/26 11:30:14;;;;;;;2.67;2.13;;;;;;;37.53;27.07;99783.22;4954101;29;20031;-61
2022/08/26 11:32:39;;;;;;;3.13;2.30;;;;;;;37.15;27.40;99782.78;4954222;28;20509;-61
2022/08/26 11:35:33;;;;;;;2.63;2.20;;;;;;;37.92;27.41;99776.47;4954274;29;20039;-62
2022/08/26 11:38:01;;;;;;;2.55;2.00;;;;;;;37.92;26.08;99772.91;4953448;28;20109;-62
2022/08/26 11:40:30;;;;;;;3.03;2.50;;;;;;;35.71;28.85;99767.59;4953790;29;20062;-61
2022/08/26 11:43:05;;;;;;;2.97;2.28;;;;;;;37.13;27.74;99773.22;4953955;29;20137;-61
2022/08/26 11:45:56;;;;;;;3.10;2.10;;;;;;;37.78;26.65;99761.50;4954217;29;20407;-63
2022/08/26 11:48:32;;;;;;;2.55;1.98;;;;;;;38.42;25.97;99755.16;4954080;29;20130;-62
2022/08/26 11:51:00;;;;;;;;;;;;;;;38.42;26.18;99749.59;4953992;28;20062;-61
2022/08/26 11:53:27;;;;;;;2.63;1.85;;;;;;;38.40;25.46;99749.16;4953925;29;19921;-62
2022/08/26 11:55:54;;;;;;;3.00;2.03;;;;;;;38.73;24.90;99736.56;4953875;29;20070;-61
2022/08/26 11:58:22;;;;;;;2.65;2.10;;;;;;;38.59;24.97;99736.31;4953966;29;20037;-61
2022/08/26 12:00:56;;;;;;;1.90;1.58;;;;;;;38.67;23.69;99733.31;4953510;28;20046;-61
2022/08/26 12:03:34;;;;;;;1.80;1.70;;;;;;;38.51;24.81;99744.56;4953858;29;20078;-61
2022/08/26 12:06:00;;;;;;;2.08;1.88;;;;;;;38.08;25.75;99743.00;4953794;29;20054;-61
2022/08/26 12:08:30;;;;;;;2.80;2.00;;;;;;;38.90;24.24;99743.59;4953740;28;20097;-61
2022/08/26 12:11:18;;;;;;;1.98;1.70;;;;;;;38.92;24.68;99742.03;4953194;28;20129;-60
2022/08/26 12:14:03;;;;;;;2.10;1.90;;;;;;;37.57;25.97;99745.22;4953672;29;20085;-60
2022/08/26 12:16:32;;;;;;;2.38;2.13;;;;;;;37.88;25.62;99758.13;4953548;29;20043;-61
2022/08/26 12:18:58;;;;;;;2.13;1.92;;;;;;;38.74;24.48;99746.53;4953326;29;20421;-61
2022/08/26 12:21:28;;;;;;;2.13;1.88;;;;;;;38.69;24.61;99758.75;4953360;28;20027;-61
2022/08/26 12:23:58;;;;;;;3.83;2.10;;;;;;;37.92;25.57;99759.81;4953424;29;20116;-61
2022/08/26 12:26:31;;;;;;;3.55;2.25;;;;;;;37.66;26.76;99759.66;4953557;29;20039;-61
2022/08/26 12:29:01;;;;;;;2.20;2.00;;;;;;;37.69;26.09;99758.94;4953301;29;20046;-62
2022/08/26 12:31:31;;;;;;;2.90;2.00;;;;;;;37.27;25.23;99756.88;4953021;28;20046;-61
2022/08/26 12:33:58;;;;;;;2.28;2.05;;;;;;;37.81;25.90;99752.44;4953314;29;20043;-61
2022/08/26 12:36:27;;;;;;;2.55;1.85;;;;;;;38.41;25.08;99753.56;4953377;29;20456;-61
2022/08/26 12:38:54;;;;;;;2.80;1.70;;;;;;;38.51;24.06;99750.13;4953224;29;20403;-61
2022/08/26 12:41:38;;;;;;;;;;;;;;;37.68;24.71;99743.44;4953510;28;20031;-61
2022/08/26 12:44:03;;;;;;;2.72;2.25;;;;;;;37.22;24.11;99729.38;4953188;28;19977;-61
2022/08/26 12:46:29;;;;;;;2.97;2.20;;;;;;;37.39;25.43;99725.41;4953346;29;20102;-61
2022/08/26 12:48:59;;;;;;;2.63;1.87;;;;;;;37.73;25.71;99726.47;4953621;28;20046;-59
2022/08/26 12:51:29;;;;;;;2.55;2.03;;;;;;;38.62;24.51;99719.72;4956988;28;20690;-60
2022/08/26 12:53:55;;;;;;;2.38;2.15;;;;;;;38.60;24.74;99704.53;4957086;29;20059;-60
2022/08/26 12:56:23;;;;;;;2.40;2.00;;;;;;;38.55;24.30;99698.16;4957638;29;20050;-62
2022/08/26 12:59:18;;;;;;;3.00;2.40;;;;;;;38.62;24.55;99705.00;4956872;29;20045;-62
2022/08/26 13:01:44;;;;;;;2.30;2.10;;;;;;;38.78;24.02;99692.53;4957112;28;20031;-62
2022/08/26 13:04:36;;;;;;;2.65;2.33;;;;;;;38.47;24.04;99688.09;4956949;29;20042;-62
2022/08/26 13:07:17;;;;;;;3.08;2.53;;;;;;;37.76;25.68;99678.50;4956914;29;20074;-62
2022/08/26 13:09:42;;;;;;;2.22;2.03;;;;;;;36.81;26.64;99684.47;4956743;29;20035;-62
2022/08/26 13:12:10;;;;;;;2.20;1.87;;;;;;;36.54;26.72;99677.13;4956816;28;20046;-61
2022/08/26 13:14:36;;;;;;;2.65;2.45;;;;;;;36.34;27.94;99668.72;4956953;29;20166;-60
2022/08/26 13:17:02;;;;;;;2.47;2.27;;;;;;;36.60;27.08;99670.13;4956720;29;20499;-61
2022/08/26 13:19:28;;;;;;;3.47;2.33;;;;;;;36.39;27.31;99676.81;4956332;29;20282;-62
2022/08/26 13:21:58;;;;;;;;;;;;;;;35.91;27.87;99663.28;4957027;28;20508;-62
2022/08/26 13:24:37;;;;;;;4.90;2.42;;;;;;;35.81;27.52;99676.50;4956613;29;19918;-61
2022/08/26 13:27:04;;;;;;;3.75;2.42;;;;;;;35.37;28.04;99664.56;4956638;29;20039;-62
2022/08/26 13:29:29;;;;;;;3.78;2.53;;;;;;;35.62;28.86;99659.75;4956267;29;20031;-61
2022/08/26 13:31:56;;;;;;;2.70;2.40;;;;;;;35.87;28.40;99652.09;4956226;28;20527;-66
2022/08/26 13:34:22;;;;;;;3.47;2.05;;;;;;;36.06;28.37;99652.22;4956477;29;20319;-63
2022/08/26 13:36:50;;;;;;;3.35;2.67;;;;;;;36.36;27.02;99652.53;4956381;29;20039;-63
2022/08/26 13:39:17;;;;;;;3.38;2.45;;;;;;;36.72;27.33;99647.03;4954104;29;20046;-62
2022/08/26 13:41:43;;;;;;;3.17;2.45;;;;;;;36.79;26.77;99650.75;4956177;28;20059;-62
2022/08/26 13:44:09;;;;;;;2.67;2.43;;;;;;;36.89;26.62;99654.94;4956213;28;20066;-61
2022/08/26 13:46:34;;;;;;;3.25;2.28;;;;;;;36.67;26.99;99662.78;4956067;28;20041;-60
2022/08/26 13:49:00;;;;;;;2.53;2.07;;;;;;;36.47;28.54;99663.91;4956071;28;20046;-61
2022/08/26 13:51:27;;;;;;;2.47;2.22;;;;;;;35.74;29.62;99665.22;4955994;28;20400;-61
2022/08/26 13:53:53;;;;;;;;;;;;;;;35.22;30.09;99666.16;4956320;28;20090;-61
2022/08/26 13:56:19;;;;;;;3.47;2.45;;;;;;;35.00;31.08;99673.00;4954649;29;19929;-61
2022/08/26 13:58:45;;;;;;;2.43;2.17;;;;;;;34.24;32.00;99671.81;4955816;28;20053;-62
2022/08/26 14:01:11;;;;;;;2.40;2.03;;;;;;;33.83;32.29;99667.22;4954852;28;20118;-60
2022/08/26 14:03:37;;;;;;;3.55;2.50;;;;;;;33.12;33.11;99664.66;4955978;28;20094;-62
2022/08/26 14:06:03;;;;;;;3.00;2.23;;;;;;;33.10;33.20;99673.28;4955727;28;20035;-61
2022/08/26 14:08:29;;;;;;;2.90;2.20;;;;;;;33.05;33.53;99665.19;4954795;28;20432;-62
2022/08/26 14:10:55;;;;;;;2.45;2.05;;;;;;;33.11;34.12;99666.63;4955916;28;20058;-61
2022/08/26 14:13:20;;;;;;;2.93;2.33;;;;;;;32.99;34.14;99668.50;4965131;28;20448;-62
2022/08/26 14:15:46;;;;;;;4.50;2.43;;;;;;;32.76;34.82;99646.75;4961130;28;20035;-61
2022/08/26 14:18:14;;;;;;;2.90;2.50;;;;;;;32.86;34.31;99662.06;4945260;29;20511;-61
2022/08/26 14:20:43;;;;;;;2.60;2.17;;;;;;;32.66;35.06;99671.94;4944789;29;20035;-61
2022/08/26 14:23:09;;;;;;;3.40;2.30;;;;;;;32.73;35.79;99665.91;4944983;29;20055;-61
2022/08/26 14:25:34;;;;;;;3.93;2.33;;;;;;;32.83;35.58;99660.00;4946686;29;20039;-61
2022/08/26 14:28:00;;;;;;;2.70;2.27;;;;;;;32.68;35.56;99658.66;4945031;29;20160;-61
2022/08/26 14:30:26;;;;;;;2.90;2.17;;;;;;;32.64;35.75;99658.50;4944879;28;20039;-62
2022/08/26 14:32:54;;;;;;;2.47;2.10;;;;;;;32.50;35.52;99649.69;4946155;29;20118;-61
2022/08/26 14:35:25;;;;;;;3.58;2.40;;;;;;;32.61;35.78;99642.66;4944616;29;20127;-62
2022/08/26 14:37:51;;;;;;;3.67;3.28;;;;;;;32.72;35.19;99643.03;4944469;28;20073;-61
2022/08/26 14:40:18;;;;;;;3.33;2.80;;;;;;;32.65;34.88;99656.56;4944049;29;20413;-61
2022/08/26 14:42:46;;;;;;;6.03;4.32;;;;;;;32.66;35.30;99655.41;4943886;29;20035;-60
2022/08/26 14:45:16;;;;;;;4.13;3.00;;;;;;;32.28;36.11;99645.25;4946061;29;20093;-61
2022/08/26 14:47:46;;;;;;;2.83;2.40;;;;;;;32.29;36.13;99646.88;4944558;29;20149;-60
2022/08/26 14:50:18;;;;;;;3.17;2.78;;;;;;;32.26;36.57;99643.94;4942543;28;20300;-60
2022/08/26 14:55:31;;;;;;;2.80;2.60;;;;;;;32.38;36.74;99649.59;4945173;29;20489;-61
2022/08/26 14:57:57;;;;;;;3.10;2.60;;;;;;;32.00;37.45;99653.13;4946973;28;20081;-60
2022/08/26 15:00:22;;;;;;;3.03;2.40;;;;;;;31.76;37.82;99664.72;4945438;29;20066;-61
2022/08/26 15:02:48;;;;;;;3.47;2.80;;;;;;;31.36;38.56;99680.63;4943493;29;20036;-62
2022/08/26 15:05:14;;;;;;;3.03;2.70;;;;;;;31.45;38.40;99686.94;4945020;28;20126;-61
2022/08/26 15:07:39;;;;;;;3.33;2.77;;;;;;;31.25;38.20;99698.63;4947816;29;20042;-61
2022/08/26 15:10:07;;;;;;;4.50;2.90;;;;;;;30.96;39.41;99697.25;4954393;28;20070;-62
2022/08/26 15:12:32;;;;;;;2.83;2.50;;;;;;;30.91;39.66;99710.34;4953689;28;20058;-61
2022/08/26 15:14:58;;;;;;;3.38;3.00;;;;;;;30.78;39.77;99703.91;4953179;28;20039;-61
2022/08/26 15:17:25;;;;;;;3.45;3.00;;;;;;;30.57;40.16;99708.31;4954558;28;20071;-61
2022/08/26 15:19:50;;;;;;;3.95;3.30;;;;;;;30.23;40.89;99709.81;4954202;28;20027;-64
2022/08/26 15:22:16;;;;;;;3.38;2.95;;;;;;;30.11;41.58;99704.91;4954549;28;20045;-52
2022/08/26 15:24:42;;;;;;;4.38;3.22;;;;;;;29.82;42.74;99696.34;4954669;28;20043;-59
2022/08/26 15:27:07;;;;;;;5.68;3.30;;;;;;;29.69;44.64;99703.53;4954795;28;20063;-57
2022/08/26 15:29:33;;;;;;;3.78;3.38;;;;;;;29.39;44.40;99703.13;4954133;28;20065;-57
2022/08/26 15:32:00;;;;;;;4.10;3.42;;;;;;;29.33;46.60;99712.59;4954602;28;20412;-57
2022/08/26 15:34:26;;;;;;;4.30;3.90;;;;;;;29.27;44.94;99705.59;4954927;28;20031;-57
2022/08/26 15:36:51;;;;;;;6.40;4.28;;;;;;;29.12;45.15;99719.69;4954513;28;20497;-56
2022/08/26 15:39:17;;;;;;;4.93;3.97;;;;;;;29.01;45.53;99721.03;4954034;28;20063;-57
2022/08/26 15:41:43;;;;;;;4.70;4.20;;;;;;;29.04;46.43;99723.97;4954338;28;20397;-58
2022/08/26 15:44:10;;;;;;;5.50;4.45;;;;;;;29.02;46.90;99728.97;4954359;29;20122;-51
2022/08/26 15:46:36;;;;;;;5.22;4.30;;;;;;;28.87;45.69;99727.31;4955552;28;20039;-53
2022/08/26 15:49:01;;;;;;;5.40;4.50;;;;;;;28.83;46.51;99720.84;4956378;28;20098;-59
2022/08/26 15:51:30;;;;;;;5.93;5.13;;;;;;;28.82;46.66;99716.47;4954285;28;20035;-62
2022/08/26 15:53:57;;;;;;;4.40;3.88;;;;;;;28.66;46.36;99706.94;4954123;28;20035;-63
2022/08/26 15:56:25;;;;;;;4.82;3.40;;;;;;;28.64;45.98;99706.44;4954202;28;20054;-61
2022/08/26 15:58:50;;;;;;;4.38;3.70;;;;;;;28.57;46.56;99711.53;4953980;28;20118;-62
2022/08/26 16:01:17;;;;;;;3.72;3.30;;;;;;;28.44;46.98;99706.88;4953706;28;20039;-62
2022/08/26 16:03:42;;;;;;;4.97;3.65;;;;;;;28.34;47.11;99714.16;4956990;28;20486;-62
2022/08/26 16:06:12;;;;;;;4.68;3.38;;;;;;;28.40;47.55;99734.03;4955040;28;20077;-62
2022/08/26 16:08:38;;;;;;;4.65;3.78;;;;;;;28.32;47.69;99754.72;4954300;29;20089;-62
2022/08/26 16:11:03;;;;;;;4.82;3.53;;;;;;;28.38;47.58;99767.22;4953667;28;20047;-62
2022/08/26 16:13:28;;;;;;;4.97;3.78;;;;;;;28.42;48.25;99769.34;4953839;28;20101;-62